Aviation Digital Data Service (ADDS)

Output produced by METARs form (0916 UTC 30 May 2017)
found at http://www.aviationweather.gov/adds/metars/
 
KFIG 300854Z AUTO 01004KT 10SM FEW080 FEW095 12/12 A2999 RMK AO2 LTG DSNT W-N SLP150 T01220117 58003
KFIG 300754Z AUTO 02004KT 10SM FEW095 12/12 A3000 RMK AO2 LTG DSNT E SLP154 T01220117
KFIG 300654Z AUTO 36005KT 10SM CLR 13/12 A3000 RMK AO2 SLP152 T01330117
KFIG 300554Z AUTO 35004KT 10SM CLR 13/12 A3000 RMK AO2 SLP153 T01280122 10217 20128 50002
KFIG 300454Z AUTO 00000KT 10SM CLR 14/13 A3001 RMK AO2 SLP155 T01440128 402440139
KFIG 300354Z AUTO 00000KT 10SM CLR 15/12 A3000 RMK AO2 SLP152 T01500122
KFIG 300254Z AUTO 34004KT 10SM BKN110 16/13 A3000 RMK AO2 SLP152 T01560128 51014
KFIG 300154Z AUTO 36004KT 10SM CLR 16/12 A2998 RMK AO2 SLP149 T01610122
KFIG 300054Z AUTO 00000KT 10SM CLR 19/11 A2997 RMK AO2 SLP143 T01940106
KFIG 292354Z AUTO 22004KT 10SM CLR 22/09 A2995 RMK AO2 SLP137 T02170094 10244 20217 57002
KFIG 292254Z AUTO 22006KT 10SM CLR 23/09 A2996 RMK AO2 SLP136 T02330094
KFIG 292154Z AUTO 24008KT 10SM FEW110 24/09 A2996 RMK AO2 SLP137 T02390094
KFIG 292054Z AUTO 26010KT 10SM BKN110 23/09 A2996 RMK AO2 SLP138 T02280094 53014
KFIG 291954Z AUTO 26008G15KT 10SM FEW060 BKN100 22/11 A2994 RMK AO2 SLP134 T02220106
KFIG 291854Z AUTO 26010G17KT 10SM SCT070 24/12 A2993 RMK AO2 SLP126 T02390117
KFIG 291754Z AUTO 26007G19KT 230V310 10SM SCT055 BKN070 23/12 A2992 RMK AO2 SLP123 T02330117 10233 20161 51013
KFIG 291654Z AUTO 27009KT 230V310 10SM BKN046 BKN060 22/13 A2992 RMK AO2 SLP124 T02170128
KFIG 291554Z AUTO 28008KT 10SM SCT036 BKN044 BKN050 21/14 A2990 RMK AO2 SLP118 T02110139
KFIG 291454Z AUTO 24007KT 10SM SCT023 SCT042 19/16 A2988 RMK AO2 SLP112 T01940156 50014
KFIG 291439Z AUTO 24008KT 10SM SCT018 SCT040 19/16 A2987 RMK AO2 T01940156
KFIG 291354Z AUTO 25007KT 10SM SCT016 SCT022 BKN027 18/16 A2988 RMK AO2 SLP112 T01830156
KFIG 291319Z AUTO 25009KT 220V290 10SM FEW013 BKN020 BKN025 18/16 A2988 RMK AO2 T01780156
KFIG 291254Z AUTO 21007KT 10SM BKN011 OVC019 17/16 A2987 RMK AO2 SLP109 T01670161
KFIG 291245Z AUTO 21006KT 10SM BKN011 17/16 A2987 RMK AO2 T01670161
KFIG 291214Z AUTO 21007KT 10SM BKN005 OVC008 16/16 A2985 RMK AO2 CIG 002V008 T01610161
KFIG 291154Z AUTO 20007KT 10SM BKN003 16/16 A2984 RMK AO2 SLP098 60028 70162 T01610161 10161 20156 51013
KFIG 291151Z AUTO 20007KT 10SM BKN003 16/16 A2983 RMK AO2
KFIG 291136Z AUTO 19005KT 10SM FEW003 BKN055 16/16 A2983 RMK AO2 T01560156
KFIG 291054Z AUTO 22008KT 10SM FEW040 SCT120 16/16 A2982 RMK AO2 RAE12 SLP095 P0000 T01560156
KFIG 291027Z AUTO 25005KT 10SM SCT007 BKN095 BKN120 16/16 A2981 RMK AO2 RAE12 P0000 T01560156
KFIG 290954Z AUTO 24005KT 10SM -RA BKN005 OVC090 16/16 A2980 RMK AO2 SLP085 P0013 T01560156
KFIG 290949Z AUTO 23005KT 7SM -RA SCT004 OVC090 16/16 A2980 RMK AO2 P0012
KFIG 290942Z AUTO 20006KT 2SM -RA BR FEW004 OVC090 16/16 A2979 RMK AO2 VIS 3/4V5 P0012 T01560156
KFIG 290930Z AUTO 15004KT 1/2SM -RA FG FEW004 BKN085 OVC110 16/16 A2978 RMK AO2 P0012 T01560156
KFIG 290924Z AUTO VRB04KT 1 1/2SM RA BR SCT006 BKN022 OVC085 16/16 A2979 RMK AO2 P0011 T01560156
KFIG 290921Z AUTO VRB04KT 3SM RA BR SCT004 BKN020 OVC085 16/16 A2979 RMK AO2 PRESFR P0010 T01560156
KFIG 290913Z AUTO VRB03KT 2SM +RA BR BKN006 BKN014 OVC018 16/16 A2980 RMK AO2 P0009 T01560156
KFIG 290854Z AUTO 21005KT 2 1/2SM +RA BR SCT006 OVC013 16/16 A2981 RMK AO2 LTG DSNT S RAE0755B32 SLP089 P0009 60015 T01560156 53008
KFIG 290844Z AUTO 22003KT 2 1/2SM +RA BR FEW006 BKN013 OVC070 16/16 A2980 RMK AO2 RAE0755B32 P0004 T01560156
KFIG 290830Z AUTO 25003KT 9SM BKN013 BKN018 OVC090 16/16 A2980 RMK AO2 RAE0755 P0000 T01560156
KFIG 290804Z AUTO 10003KT 10SM FEW007 BKN095 OVC110 16/16 A2978 RMK AO2 RAE0755 P0000 T01560156
KFIG 290754Z AUTO 00000KT 8SM -RA BKN005 BKN027 OVC110 16/16 A2978 RMK AO2 RAE28B42 SLP078 P0001 T01560156
KFIG 290752Z AUTO 06003KT 3SM -RA BR BKN005 BKN027 OVC110 16/16 A2978 RMK AO2 RAE28B42 P0001
KFIG 290746Z AUTO 00000KT 1/2SM -RA FG BKN005 BKN011 OVC110 16/16 A2977 RMK AO2 RAE28B42 P0001 T01560156
KFIG 290728Z AUTO 01005KT 1/4SM FG BKN004 BKN012 OVC100 16/16 A2977 RMK AO2 RAE28 P0001 T01560156
KFIG 290719Z AUTO 36004KT 1/2SM -RA FG FEW007 BKN012 OVC100 16/16 A2978 RMK AO2 LTG DSNT E P0001 T01560156
KFIG 290711Z AUTO 36003KT 3/4SM -RA BR SCT010 OVC095 16/16 A2978 RMK AO2 LTG DSNT E P0001 T01560156
KFIG 290703Z AUTO 00000KT 1 1/2SM -RA BR FEW008 BKN090 OVC110 16/16 A2978 RMK AO2 LTG DSNT E P0001 T01560156
KFIG 290654Z AUTO 00000KT 8SM -RA OVC095 16/16 A2978 RMK AO2 LTG DSNT E SLP078 P0005 T01560156
KFIG 290642Z AUTO 00000KT 4SM -RA BR FEW005 OVC090 16/16 A2978 RMK AO2 P0004 T01560156
KFIG 290637Z AUTO 00000KT 1SM -RA BR SCT007 OVC095 16/16 A2978 RMK AO2 VIS 1/2V5 LTG DSNT SE P0004 T01560156
KFIG 290621Z AUTO 35003KT 3/4SM VCTS -RA BR BKN007 OVC090 16/16 A2979 RMK AO2 LTG DSNT E-S P0003 T01560156
KFIG 290616Z AUTO 36004KT 1 1/2SM VCTS -RA BR SCT004 BKN014 OVC090 16/16 A2978 RMK AO2 LTG DSNT E-S P0003 T01560156
KFIG 290610Z AUTO 35003KT 1/2SM VCTS -RA FG FEW004 SCT018 OVC090 16/16 A2978 RMK AO2 LTG DSNT SE AND S P0002 T01560156
KFIG 290604Z AUTO 01003KT 3/4SM RA BR FEW013 OVC090 16/16 A2978 RMK AO2 LTG DSNT SE AND S P0002 T01560156
KFIG 290601Z AUTO 35004KT 2SM RA BR OVC090 16/16 A2979 RMK AO2 LTG DSNT SE P0002 T01610161
KFIG 290554Z AUTO 00000KT 6SM VCTS RA BR FEW070 OVC090 16/16 A2978 RMK AO2 SLP081 P0020 60121 T01610161 10167 20156 58016
KFIG 290525Z AUTO 09004KT 4SM RA BR SCT041 OVC075 16/16 A2979 RMK AO2 LTG DSNT ALQDS P0015 T01560156
KFIG 290518Z AUTO 00000KT 3SM VCTS RA BR FEW010 BKN042 OVC075 16/16 A2980 RMK AO2 LTG DSNT E AND SE AND W P0013 T01610161
KFIG 290510Z AUTO 00000KT 1 1/2SM VCTS +RA BR FEW010 BKN042 OVC060 16/16 A2980 RMK AO2 LTG DSNT SE P0010 T01610161
KFIG 290503Z AUTO 00000KT 1 3/4SM +RA BR FEW010 BKN042 OVC060 16/16 A2980 RMK AO2 LTG DSNT SE P0007 T01610161
KFIG 290454Z AUTO 24003KT 6SM -RA BR SCT008 OVC060 16/16 A2982 RMK AO2 LTG DSNT SW AND W SLP092 P0011 T01610161 401890106
KFIG 290435Z AUTO VRB03KT 6SM -RA BR FEW008 BKN050 OVC065 16/16 A2981 RMK AO2 LTG DSNT ALQDS P0010 T01610161
KFIG 290427Z AUTO 01004KT 3SM -RA BR FEW010 BKN024 OVC050 16/16 A2981 RMK AO2 LTG DSNT SW AND W P0010 T01610161
KFIG 290423Z AUTO 35003KT 1SM RA BR FEW008 BKN035 OVC055 16/16 A2982 RMK AO2 LTG DSNT S-W P0009 T01610161
KFIG 290414Z AUTO 01005KT 1/2SM RA FG FEW010 BKN032 OVC055 16/16 A2982 RMK AO2 LTG DSNT SE-W P0008 T01610161
KFIG 290401Z AUTO 35005KT 1 3/4SM +RA BR BKN049 BKN070 OVC080 16/16 A2983 RMK AO2 LTG DSNT SE AND S P0004 T01610161
KFIG 290354Z AUTO 31004KT 3SM +RA BR SCT049 BKN060 OVC090 16/16 A2983 RMK AO2 LTG DSNT SE-SW SLP095 P0015 T01610161
KFIG 290320Z AUTO 12003KT 4SM RA BR SCT008 OVC070 16/16 A2982 RMK AO2 LTG DSNT SW P0006 T01610161
KFIG 290305Z AUTO 00000KT 5SM VCTS RA BR BKN008 BKN070 OVC090 17/16 A2983 RMK AO2 LTG DSNT SW P0002 T01670161
KFIG 290254Z AUTO 00000KT 5SM RA BR BKN006 OVC090 16/16 A2983 RMK AO2 LTG DSNT SW SLP098 P0016 60075 T01610161 56000
KFIG 290228Z AUTO 21004KT 4SM RA BR BKN006 BKN055 OVC080 17/17 A2985 RMK AO2 LTG DSNT SW AND W P0011 T01670167
KFIG 290220Z AUTO VRB04KT 5SM RA BR SCT006 BKN055 OVC080 17/17 A2984 RMK AO2 LTG DSNT SW AND W P0009 T01670167
KFIG 290205Z AUTO 10006KT 5SM VCTS RA BR SCT006 BKN055 OVC080 17/16 A2983 RMK AO2 LTG DSNT S AND SW P0004 T01670161
KFIG 290154Z AUTO VRB04KT 5SM RA BR SCT006 BKN055 OVC085 17/16 A2984 RMK AO2 LTG DSNT SW SLP099 P0017 T01670161
KFIG 290146Z AUTO 12004KT 5SM RA BR SCT005 SCT055 OVC080 17/17 A2984 RMK AO2 LTG DSNT SW P0015 T01670167
KFIG 290126Z AUTO 09010G17KT 5SM +RA BR OVC080 17/17 A2983 RMK AO2 LTG DSNT SW P0009 T01670167
KFIG 290054Z AUTO 10011KT 3SM VCTS +RA BR SCT012 BKN045 OVC070 17/17 A2983 RMK AO2 LTG DSNT S AND W RAB2355 TSB08E52 PRESFR SLP099 P0042 T01670167
KFIG 290050Z AUTO 07009KT 2 1/2SM +TSRA BR SCT012 BKN040 OVC075 17/17 A2984 RMK AO2 LTG DSNT S AND W RAB2355 TSB08 P0041
KFIG 290037Z AUTO 36011KT 1 3/4SM +TSRA BR FEW005 OVC012 17/17 A2985 RMK AO2 LTG DSNT S AND SW RAB2355 TSB08 P0030 T01670167
KFIG 290012Z AUTO 04006KT 3SM TSRA BR FEW006 OVC013 17/17 A2984 RMK AO2 LTG DSNT W RAB2355 TSB08 P0010 T01670167
KFIG 290008Z AUTO 04005KT 1 3/4SM TSRA BR FEW006 OVC013 17/17 A2984 RMK AO2 LTG DSNT SW AND W RAB2355 TSB08 P0008 T01670167
KFIG 282354Z AUTO 01006KT 1 1/4SM VCTS BR OVC013 17/17 A2984 RMK AO2 VIS 1/2V3 LTG DSNT ALQDS RAE2259B20E31 SLP100 P0000 60013 T01720167 10183 20172 53003
KFIG 282349Z AUTO 35006KT 1 1/2SM VCTS BR OVC013 17/17 A2984 RMK AO2 VIS 1/2V5 LTG DSNT ALQDS RAE2259B20E31 P0000
KFIG 282316Z AUTO VRB04KT 9SM VCTS OVC013 17/17 A2983 RMK AO2 LTG DSNT W-N RAE2259 P0000 T01720167
KFIG 282306Z AUTO 12004KT 10SM OVC013 17/17 A2983 RMK AO2 LTG DSNT N AND W RAE2259 P0000 T01720167
KFIG 282254Z AUTO 10005KT 7SM VCTS -RA OVC013 17/17 A2982 RMK AO2 LTG DSNT W-N RAB31 SLP097 P0001 T01720167
KFIG 282249Z AUTO 11004KT 6SM VCTS -RA BR OVC013 17/17 A2983 RMK AO2 LTG DSNT W-N RAB31 P0001 $
KFIG 282154Z AUTO 11004KT 8SM BKN013 OVC024 18/17 A2983 RMK AO2 LTG DSNT E AND W AND NW RAE12 TSE2059 SLP097 P0005 T01780167 $